Airfield :







YOU CAN JOIN US ON...

 
LOGIN :

Register | Disclaimer

   EN    FR    IT 

 









Legend :    VFR   Marginal VFR   IFR   Intensive IFR   Very Intensive IFR
Visi :
Ceiling :
>= 8 km
>= 3000ft
5 to 8 km
1000 to 3000 ft
1500m to 5 km
500 to 1000 ft
800 to 1500m
200 to 500 ft
< 800m
< 200 ft
Symbols :   Thunderstorms  Fog  Heavy snow  Heavy precipitations  Wind > 20 kt






- Airport Elevation : 328 ft


KGFL - Floyd Bennett Memorial

CURRENT METAR :
  • 021353Z AUTO 19006KT 10SM OVC110 M06/M12 A3015 RMK AO2 SLP222 T10611117

EXPIRED METARs :
  • 021253Z AUTO 18005KT 10SM SCT100 OVC110 M07/M12 A3016 RMK AO2 SLP224 T10721117
  • 021153Z AUTO 18006KT 10SM BKN095 OVC120 M07/M12 A3017 RMK AO2 SLP228 T10721117 11067 21072 56007

TAF KGFL
Valid from the 02 at 12:00 until the 03 at 12:00 UTC


021120Z 0212/0312 20007KT P6SM FEW040 BKN100
FM021500 21010KT P6SM SCT090
FM021700 21012G20KT P6SM SKC
FM030200 23010G18KT P6SM SCT050
PROB30 0303/0307 28020G30KT 1 1/2SM -SHSN BR BKN020
FM030700 30015G25KT P6SM SCT040
FM031000 33017G27KT P6SM SCT025
KZBW FIR / North America



MET'MAP, your aeronautical weather chart ! - Copyright ORBIFLY December 2007 - Disclaimer

ORBIFLY MET'MAP TEAM :

Programming & Development : Alexandra Zaïnal
Original concept : Baudouin d'Aumeries
Technical & hardware support : Manuel Goepfert
Assistance : Marc-Olivier Méhu




SOURCES & CREDITS :

   NOAA